sensor_id;sensor_type;location;lat;lon;timestamp;P1;durP1;ratioP1;P2;durP2;ratioP2
17943;SDS011;9097;47.028;15.444;2023-09-07T00:01:41;2.45;;;1.95;;
17943;SDS011;9097;47.028;15.444;2023-09-07T00:04:43;4.43;;;2.50;;
17943;SDS011;9097;47.028;15.444;2023-09-07T00:07:47;1.73;;;1.30;;
17943;SDS011;9097;47.028;15.444;2023-09-07T00:10:50;2.53;;;1.55;;
17943;SDS011;9097;47.028;15.444;2023-09-07T00:13:52;3.55;;;2.00;;
17943;SDS011;9097;47.028;15.444;2023-09-07T00:16:55;2.58;;;1.83;;
17943;SDS011;9097;47.028;15.444;2023-09-07T00:19:58;2.78;;;1.92;;
17943;SDS011;9097;47.028;15.444;2023-09-07T00:23:03;4.25;;;2.20;;
17943;SDS011;9097;47.028;15.444;2023-09-07T00:26:06;2.20;;;2.00;;
17943;SDS011;9097;47.028;15.444;2023-09-07T00:29:09;4.25;;;2.72;;
17943;SDS011;9097;47.028;15.444;2023-09-07T00:32:11;1.92;;;1.60;;
17943;SDS011;9097;47.028;15.444;2023-09-07T00:35:14;6.15;;;2.67;;
17943;SDS011;9097;47.028;15.444;2023-09-07T00:38:18;3.78;;;1.83;;
17943;SDS011;9097;47.028;15.444;2023-09-07T00:41:20;3.60;;;1.90;;
17943;SDS011;9097;47.028;15.444;2023-09-07T00:44:22;3.65;;;2.50;;
17943;SDS011;9097;47.028;15.444;2023-09-07T00:47:25;2.30;;;1.63;;
17943;SDS011;9097;47.028;15.444;2023-09-07T00:50:27;2.63;;;1.95;;
17943;SDS011;9097;47.028;15.444;2023-09-07T00:53:31;2.40;;;1.90;;
17943;SDS011;9097;47.028;15.444;2023-09-07T00:56:34;2.80;;;2.28;;
17943;SDS011;9097;47.028;15.444;2023-09-07T00:59:38;4.40;;;2.20;;
17943;SDS011;9097;47.028;15.444;2023-09-07T01:02:40;5.32;;;2.25;;
17943;SDS011;9097;47.028;15.444;2023-09-07T01:05:46;3.83;;;2.05;;
17943;SDS011;9097;47.028;15.444;2023-09-07T01:08:51;4.72;;;2.75;;
17943;SDS011;9097;47.028;15.444;2023-09-07T01:11:56;3.40;;;2.17;;
17943;SDS011;9097;47.028;15.444;2023-09-07T01:14:59;3.00;;;2.25;;
17943;SDS011;9097;47.028;15.444;2023-09-07T01:18:02;2.92;;;1.77;;
17943;SDS011;9097;47.028;15.444;2023-09-07T01:21:05;4.10;;;2.10;;
17943;SDS011;9097;47.028;15.444;2023-09-07T01:24:10;3.05;;;1.98;;
17943;SDS011;9097;47.028;15.444;2023-09-07T01:27:13;3.13;;;1.90;;
17943;SDS011;9097;47.028;15.444;2023-09-07T01:30:17;3.72;;;2.17;;
17943;SDS011;9097;47.028;15.444;2023-09-07T01:33:20;3.35;;;2.13;;
17943;SDS011;9097;47.028;15.444;2023-09-07T01:36:22;3.20;;;2.15;;
17943;SDS011;9097;47.028;15.444;2023-09-07T01:39:26;2.03;;;1.83;;
17943;SDS011;9097;47.028;15.444;2023-09-07T01:42:29;5.85;;;2.22;;
17943;SDS011;9097;47.028;15.444;2023-09-07T01:45:31;2.85;;;2.13;;
17943;SDS011;9097;47.028;15.444;2023-09-07T01:48:34;2.72;;;1.55;;
17943;SDS011;9097;47.028;15.444;2023-09-07T01:51:36;3.28;;;2.10;;
17943;SDS011;9097;47.028;15.444;2023-09-07T01:54:40;4.35;;;2.75;;
17943;SDS011;9097;47.028;15.444;2023-09-07T01:57:43;3.20;;;1.90;;
17943;SDS011;9097;47.028;15.444;2023-09-07T02:00:46;4.13;;;2.28;;
17943;SDS011;9097;47.028;15.444;2023-09-07T02:03:48;4.65;;;2.33;;
17943;SDS011;9097;47.028;15.444;2023-09-07T02:06:51;3.72;;;2.40;;
17943;SDS011;9097;47.028;15.444;2023-09-07T02:09:55;2.38;;;1.65;;
17943;SDS011;9097;47.028;15.444;2023-09-07T02:12:57;3.50;;;2.25;;
17943;SDS011;9097;47.028;15.444;2023-09-07T02:16:02;4.68;;;2.22;;
17943;SDS011;9097;47.028;15.444;2023-09-07T02:19:05;3.67;;;2.30;;
17943;SDS011;9097;47.028;15.444;2023-09-07T02:22:08;2.55;;;2.03;;
17943;SDS011;9097;47.028;15.444;2023-09-07T02:25:12;2.22;;;1.42;;
17943;SDS011;9097;47.028;15.444;2023-09-07T02:28:14;2.78;;;2.10;;
17943;SDS011;9097;47.028;15.444;2023-09-07T02:31:17;2.95;;;1.77;;
17943;SDS011;9097;47.028;15.444;2023-09-07T02:34:20;6.25;;;2.95;;
17943;SDS011;9097;47.028;15.444;2023-09-07T02:37:22;2.67;;;2.05;;
17943;SDS011;9097;47.028;15.444;2023-09-07T02:40:26;3.63;;;2.00;;
17943;SDS011;9097;47.028;15.444;2023-09-07T02:43:29;5.32;;;2.45;;
17943;SDS011;9097;47.028;15.444;2023-09-07T02:46:31;3.35;;;2.22;;
17943;SDS011;9097;47.028;15.444;2023-09-07T02:49:34;7.38;;;3.35;;
17943;SDS011;9097;47.028;15.444;2023-09-07T02:52:36;3.97;;;2.25;;
17943;SDS011;9097;47.028;15.444;2023-09-07T02:55:40;3.53;;;2.67;;
17943;SDS011;9097;47.028;15.444;2023-09-07T02:58:43;3.25;;;2.25;;
17943;SDS011;9097;47.028;15.444;2023-09-07T03:01:46;2.67;;;1.92;;
17943;SDS011;9097;47.028;15.444;2023-09-07T03:04:52;2.55;;;1.98;;
17943;SDS011;9097;47.028;15.444;2023-09-07T03:07:59;5.15;;;2.20;;
17943;SDS011;9097;47.028;15.444;2023-09-07T03:11:04;5.55;;;2.67;;
17943;SDS011;9097;47.028;15.444;2023-09-07T03:14:06;4.05;;;2.45;;
17943;SDS011;9097;47.028;15.444;2023-09-07T03:17:09;5.20;;;2.17;;
17943;SDS011;9097;47.028;15.444;2023-09-07T03:20:11;2.45;;;1.90;;
17943;SDS011;9097;47.028;15.444;2023-09-07T03:23:14;4.88;;;2.25;;
17943;SDS011;9097;47.028;15.444;2023-09-07T03:26:18;4.22;;;2.47;;
17943;SDS011;9097;47.028;15.444;2023-09-07T03:29:20;4.32;;;2.30;;
17943;SDS011;9097;47.028;15.444;2023-09-07T03:32:23;3.80;;;2.30;;
17943;SDS011;9097;47.028;15.444;2023-09-07T03:35:27;4.43;;;2.58;;
17943;SDS011;9097;47.028;15.444;2023-09-07T03:38:29;4.90;;;2.80;;
17943;SDS011;9097;47.028;15.444;2023-09-07T03:41:33;2.83;;;1.90;;
17943;SDS011;9097;47.028;15.444;2023-09-07T03:44:36;2.67;;;2.05;;
17943;SDS011;9097;47.028;15.444;2023-09-07T03:47:39;6.03;;;3.03;;
17943;SDS011;9097;47.028;15.444;2023-09-07T03:50:42;3.20;;;2.33;;
17943;SDS011;9097;47.028;15.444;2023-09-07T03:53:44;6.05;;;2.45;;
17943;SDS011;9097;47.028;15.444;2023-09-07T03:56:48;2.67;;;1.95;;
17943;SDS011;9097;47.028;15.444;2023-09-07T03:59:51;2.70;;;2.00;;
17943;SDS011;9097;47.028;15.444;2023-09-07T04:02:56;3.42;;;2.20;;
17943;SDS011;9097;47.028;15.444;2023-09-07T04:05:58;2.92;;;2.10;;
17943;SDS011;9097;47.028;15.444;2023-09-07T04:09:01;4.20;;;1.88;;
17943;SDS011;9097;47.028;15.444;2023-09-07T04:12:05;3.67;;;2.22;;
17943;SDS011;9097;47.028;15.444;2023-09-07T04:15:08;3.47;;;2.30;;
17943;SDS011;9097;47.028;15.444;2023-09-07T04:18:11;2.00;;;1.80;;
17943;SDS011;9097;47.028;15.444;2023-09-07T04:21:15;2.25;;;1.85;;
17943;SDS011;9097;47.028;15.444;2023-09-07T04:24:17;3.33;;;2.47;;
17943;SDS011;9097;47.028;15.444;2023-09-07T04:27:21;3.55;;;2.10;;
17943;SDS011;9097;47.028;15.444;2023-09-07T04:30:24;4.03;;;1.90;;
17943;SDS011;9097;47.028;15.444;2023-09-07T04:33:29;1.98;;;1.70;;
17943;SDS011;9097;47.028;15.444;2023-09-07T04:36:32;2.58;;;2.05;;
17943;SDS011;9097;47.028;15.444;2023-09-07T04:39:34;2.58;;;1.90;;
17943;SDS011;9097;47.028;15.444;2023-09-07T04:42:38;3.65;;;2.13;;
17943;SDS011;9097;47.028;15.444;2023-09-07T04:45:45;4.60;;;2.00;;
17943;SDS011;9097;47.028;15.444;2023-09-07T04:48:47;4.03;;;2.20;;
17943;SDS011;9097;47.028;15.444;2023-09-07T04:51:52;3.10;;;2.30;;
17943;SDS011;9097;47.028;15.444;2023-09-07T04:54:55;3.72;;;2.42;;
17943;SDS011;9097;47.028;15.444;2023-09-07T04:57:58;3.38;;;2.60;;
17943;SDS011;9097;47.028;15.444;2023-09-07T05:01:02;6.07;;;2.10;;
17943;SDS011;9097;47.028;15.444;2023-09-07T05:04:04;3.55;;;2.42;;
17943;SDS011;9097;47.028;15.444;2023-09-07T05:07:07;3.13;;;1.67;;
17943;SDS011;9097;47.028;15.444;2023-09-07T05:10:09;3.67;;;2.28;;
17943;SDS011;9097;47.028;15.444;2023-09-07T05:13:14;2.88;;;1.70;;
17943;SDS011;9097;47.028;15.444;2023-09-07T05:16:16;3.47;;;2.55;;
17943;SDS011;9097;47.028;15.444;2023-09-07T05:19:19;3.10;;;2.10;;
17943;SDS011;9097;47.028;15.444;2023-09-07T05:22:21;4.03;;;2.30;;
17943;SDS011;9097;47.028;15.444;2023-09-07T05:25:26;2.97;;;2.45;;
17943;SDS011;9097;47.028;15.444;2023-09-07T05:28:32;2.55;;;1.92;;
17943;SDS011;9097;47.028;15.444;2023-09-07T05:31:34;7.35;;;2.25;;
17943;SDS011;9097;47.028;15.444;2023-09-07T05:34:37;4.70;;;2.05;;
17943;SDS011;9097;47.028;15.444;2023-09-07T05:37:39;4.10;;;1.67;;
17943;SDS011;9097;47.028;15.444;2023-09-07T05:40:42;3.03;;;2.05;;
17943;SDS011;9097;47.028;15.444;2023-09-07T05:43:46;4.00;;;2.47;;
17943;SDS011;9097;47.028;15.444;2023-09-07T05:46:49;5.28;;;2.17;;
17943;SDS011;9097;47.028;15.444;2023-09-07T05:49:51;2.30;;;2.10;;
17943;SDS011;9097;47.028;15.444;2023-09-07T05:52:54;4.07;;;2.67;;
17943;SDS011;9097;47.028;15.444;2023-09-07T05:55:56;4.93;;;2.42;;
17943;SDS011;9097;47.028;15.444;2023-09-07T05:59:00;3.58;;;2.17;;
17943;SDS011;9097;47.028;15.444;2023-09-07T06:02:03;4.03;;;2.28;;
17943;SDS011;9097;47.028;15.444;2023-09-07T06:05:06;1.75;;;1.45;;
17943;SDS011;9097;47.028;15.444;2023-09-07T06:08:09;3.63;;;2.17;;
17943;SDS011;9097;47.028;15.444;2023-09-07T06:11:11;4.18;;;2.35;;
17943;SDS011;9097;47.028;15.444;2023-09-07T06:14:15;6.75;;;3.03;;
17943;SDS011;9097;47.028;15.444;2023-09-07T06:17:17;3.38;;;1.90;;
17943;SDS011;9097;47.028;15.444;2023-09-07T06:20:20;3.95;;;2.08;;
17943;SDS011;9097;47.028;15.444;2023-09-07T06:23:22;3.08;;;2.25;;
17943;SDS011;9097;47.028;15.444;2023-09-07T06:26:25;5.82;;;3.00;;
17943;SDS011;9097;47.028;15.444;2023-09-07T06:29:29;3.72;;;2.47;;
17943;SDS011;9097;47.028;15.444;2023-09-07T06:32:31;2.70;;;2.00;;
17943;SDS011;9097;47.028;15.444;2023-09-07T06:35:34;2.35;;;1.77;;
17943;SDS011;9097;47.028;15.444;2023-09-07T06:38:36;7.07;;;3.08;;
17943;SDS011;9097;47.028;15.444;2023-09-07T06:41:38;4.22;;;2.63;;
17943;SDS011;9097;47.028;15.444;2023-09-07T06:44:42;3.30;;;2.38;;
17943;SDS011;9097;47.028;15.444;2023-09-07T06:47:45;5.10;;;2.60;;
17943;SDS011;9097;47.028;15.444;2023-09-07T06:50:47;4.15;;;2.45;;
17943;SDS011;9097;47.028;15.444;2023-09-07T06:53:50;6.65;;;3.65;;
17943;SDS011;9097;47.028;15.444;2023-09-07T06:56:52;4.55;;;2.72;;
17943;SDS011;9097;47.028;15.444;2023-09-07T06:59:56;5.80;;;2.72;;
17943;SDS011;9097;47.028;15.444;2023-09-07T07:02:59;3.50;;;2.72;;
17943;SDS011;9097;47.028;15.444;2023-09-07T07:06:01;4.63;;;2.53;;
17943;SDS011;9097;47.028;15.444;2023-09-07T07:09:04;4.82;;;2.75;;
17943;SDS011;9097;47.028;15.444;2023-09-07T07:12:07;4.95;;;2.67;;
17943;SDS011;9097;47.028;15.444;2023-09-07T07:15:11;6.38;;;2.83;;
17943;SDS011;9097;47.028;15.444;2023-09-07T07:18:13;4.50;;;3.13;;
17943;SDS011;9097;47.028;15.444;2023-09-07T07:21:16;3.17;;;2.20;;
17943;SDS011;9097;47.028;15.444;2023-09-07T07:24:18;4.40;;;2.63;;
17943;SDS011;9097;47.028;15.444;2023-09-07T07:27:22;5.32;;;2.60;;
17943;SDS011;9097;47.028;15.444;2023-09-07T07:30:27;4.82;;;2.33;;
17943;SDS011;9097;47.028;15.444;2023-09-07T07:33:30;4.43;;;2.50;;
17943;SDS011;9097;47.028;15.444;2023-09-07T07:36:32;3.95;;;2.38;;
17943;SDS011;9097;47.028;15.444;2023-09-07T07:39:35;4.25;;;2.78;;
17943;SDS011;9097;47.028;15.444;2023-09-07T07:42:38;4.35;;;3.22;;
17943;SDS011;9097;47.028;15.444;2023-09-07T07:45:42;2.97;;;2.10;;
17943;SDS011;9097;47.028;15.444;2023-09-07T07:48:44;3.17;;;2.75;;
17943;SDS011;9097;47.028;15.444;2023-09-07T07:51:47;4.63;;;1.85;;
17943;SDS011;9097;47.028;15.444;2023-09-07T07:54:49;6.38;;;3.53;;
17943;SDS011;9097;47.028;15.444;2023-09-07T07:57:51;3.60;;;2.35;;
17943;SDS011;9097;47.028;15.444;2023-09-07T08:00:55;3.58;;;2.30;;
17943;SDS011;9097;47.028;15.444;2023-09-07T08:03:58;4.68;;;2.08;;
17943;SDS011;9097;47.028;15.444;2023-09-07T08:07:01;3.42;;;2.50;;
17943;SDS011;9097;47.028;15.444;2023-09-07T08:10:05;3.05;;;2.20;;
17943;SDS011;9097;47.028;15.444;2023-09-07T08:13:07;2.33;;;1.95;;
17943;SDS011;9097;47.028;15.444;2023-09-07T08:16:11;5.22;;;3.03;;
17943;SDS011;9097;47.028;15.444;2023-09-07T08:19:14;3.58;;;2.22;;
17943;SDS011;9097;47.028;15.444;2023-09-07T08:22:17;2.78;;;2.10;;
17943;SDS011;9097;47.028;15.444;2023-09-07T08:25:19;4.57;;;2.10;;
17943;SDS011;9097;47.028;15.444;2023-09-07T08:28:21;3.65;;;1.77;;
17943;SDS011;9097;47.028;15.444;2023-09-07T08:31:27;3.53;;;1.95;;
17943;SDS011;9097;47.028;15.444;2023-09-07T08:34:29;2.38;;;1.58;;
17943;SDS011;9097;47.028;15.444;2023-09-07T08:37:32;3.70;;;1.90;;
17943;SDS011;9097;47.028;15.444;2023-09-07T08:40:35;3.67;;;2.13;;
17943;SDS011;9097;47.028;15.444;2023-09-07T08:43:43;2.45;;;1.65;;
17943;SDS011;9097;47.028;15.444;2023-09-07T08:46:49;2.80;;;1.65;;
17943;SDS011;9097;47.028;15.444;2023-09-07T08:49:51;2.70;;;1.80;;
17943;SDS011;9097;47.028;15.444;2023-09-07T08:52:54;1.80;;;1.17;;
17943;SDS011;9097;47.028;15.444;2023-09-07T08:55:59;3.88;;;2.15;;
17943;SDS011;9097;47.028;15.444;2023-09-07T08:59:03;2.30;;;1.50;;
17943;SDS011;9097;47.028;15.444;2023-09-07T09:02:08;5.53;;;1.35;;
17943;SDS011;9097;47.028;15.444;2023-09-07T09:05:11;1.92;;;1.73;;
17943;SDS011;9097;47.028;15.444;2023-09-07T09:08:14;2.70;;;1.70;;
17943;SDS011;9097;47.028;15.444;2023-09-07T09:11:20;2.42;;;1.83;;
17943;SDS011;9097;47.028;15.444;2023-09-07T09:14:23;2.55;;;1.52;;
17943;SDS011;9097;47.028;15.444;2023-09-07T09:17:27;2.97;;;1.60;;
17943;SDS011;9097;47.028;15.444;2023-09-07T09:20:29;4.65;;;1.67;;
17943;SDS011;9097;47.028;15.444;2023-09-07T09:23:32;1.90;;;1.45;;
17943;SDS011;9097;47.028;15.444;2023-09-07T09:26:36;2.40;;;1.45;;
17943;SDS011;9097;47.028;15.444;2023-09-07T09:29:38;2.15;;;1.63;;
17943;SDS011;9097;47.028;15.444;2023-09-07T09:32:43;2.33;;;1.83;;
17943;SDS011;9097;47.028;15.444;2023-09-07T09:35:45;1.95;;;1.35;;
17943;SDS011;9097;47.028;15.444;2023-09-07T09:38:51;2.08;;;1.67;;
17943;SDS011;9097;47.028;15.444;2023-09-07T09:41:54;2.78;;;1.63;;
17943;SDS011;9097;47.028;15.444;2023-09-07T09:44:57;2.08;;;1.60;;
17943;SDS011;9097;47.028;15.444;2023-09-07T09:48:02;1.85;;;1.33;;
17943;SDS011;9097;47.028;15.444;2023-09-07T09:51:05;4.72;;;1.90;;
17943;SDS011;9097;47.028;15.444;2023-09-07T09:54:07;2.78;;;2.00;;
17943;SDS011;9097;47.028;15.444;2023-09-07T09:57:11;2.42;;;1.75;;
17943;SDS011;9097;47.028;15.444;2023-09-07T10:00:14;2.40;;;1.10;;
17943;SDS011;9097;47.028;15.444;2023-09-07T10:03:28;2.63;;;1.77;;
17943;SDS011;9097;47.028;15.444;2023-09-07T10:06:33;2.20;;;1.17;;
17943;SDS011;9097;47.028;15.444;2023-09-07T10:09:36;2.90;;;1.63;;
17943;SDS011;9097;47.028;15.444;2023-09-07T10:12:40;2.80;;;1.75;;
17943;SDS011;9097;47.028;15.444;2023-09-07T10:15:43;6.82;;;1.42;;
17943;SDS011;9097;47.028;15.444;2023-09-07T10:18:47;1.55;;;1.17;;
17943;SDS011;9097;47.028;15.444;2023-09-07T10:21:50;1.90;;;1.58;;
17943;SDS011;9097;47.028;15.444;2023-09-07T10:24:56;1.83;;;1.08;;
17943;SDS011;9097;47.028;15.444;2023-09-07T10:27:59;2.10;;;1.38;;
17943;SDS011;9097;47.028;15.444;2023-09-07T10:31:03;1.80;;;0.82;;
17943;SDS011;9097;47.028;15.444;2023-09-07T10:34:10;1.90;;;1.27;;
17943;SDS011;9097;47.028;15.444;2023-09-07T10:37:12;1.65;;;1.10;;
17943;SDS011;9097;47.028;15.444;2023-09-07T10:40:19;1.40;;;1.00;;
17943;SDS011;9097;47.028;15.444;2023-09-07T10:43:22;1.88;;;1.63;;
17943;SDS011;9097;47.028;15.444;2023-09-07T10:46:25;2.35;;;1.40;;
17943;SDS011;9097;47.028;15.444;2023-09-07T10:49:29;3.03;;;1.50;;
17943;SDS011;9097;47.028;15.444;2023-09-07T10:52:31;1.48;;;1.08;;
17943;SDS011;9097;47.028;15.444;2023-09-07T10:55:37;1.92;;;1.23;;
17943;SDS011;9097;47.028;15.444;2023-09-07T10:58:40;3.53;;;1.42;;
17943;SDS011;9097;47.028;15.444;2023-09-07T11:01:44;2.60;;;1.50;;
17943;SDS011;9097;47.028;15.444;2023-09-07T11:04:49;3.90;;;1.60;;
17943;SDS011;9097;47.028;15.444;2023-09-07T11:07:51;3.00;;;1.60;;
17943;SDS011;9097;47.028;15.444;2023-09-07T11:10:55;2.75;;;1.73;;
17943;SDS011;9097;47.028;15.444;2023-09-07T11:13:58;2.40;;;1.48;;
17943;SDS011;9097;47.028;15.444;2023-09-07T11:17:00;2.78;;;1.08;;
17943;SDS011;9097;47.028;15.444;2023-09-07T11:20:05;1.95;;;1.50;;
17943;SDS011;9097;47.028;15.444;2023-09-07T11:23:09;2.72;;;1.23;;
17943;SDS011;9097;47.028;15.444;2023-09-07T11:26:11;3.08;;;1.50;;
17943;SDS011;9097;47.028;15.444;2023-09-07T11:29:17;2.83;;;1.90;;
17943;SDS011;9097;47.028;15.444;2023-09-07T11:32:20;1.95;;;1.50;;
17943;SDS011;9097;47.028;15.444;2023-09-07T11:35:24;1.52;;;1.20;;
17943;SDS011;9097;47.028;15.444;2023-09-07T11:38:28;2.25;;;1.55;;
17943;SDS011;9097;47.028;15.444;2023-09-07T11:41:30;2.10;;;1.30;;
17943;SDS011;9097;47.028;15.444;2023-09-07T11:44:33;1.77;;;1.13;;
17943;SDS011;9097;47.028;15.444;2023-09-07T11:47:35;1.40;;;0.98;;
17943;SDS011;9097;47.028;15.444;2023-09-07T11:50:39;2.05;;;1.45;;
17943;SDS011;9097;47.028;15.444;2023-09-07T11:53:42;2.15;;;1.48;;
17943;SDS011;9097;47.028;15.444;2023-09-07T11:56:44;2.80;;;1.25;;
17943;SDS011;9097;47.028;15.444;2023-09-07T11:59:47;1.13;;;1.02;;
17943;SDS011;9097;47.028;15.444;2023-09-07T12:02:50;1.98;;;1.50;;
17943;SDS011;9097;47.028;15.444;2023-09-07T12:05:54;1.73;;;1.10;;
17943;SDS011;9097;47.028;15.444;2023-09-07T12:08:59;1.42;;;0.98;;
17943;SDS011;9097;47.028;15.444;2023-09-07T12:12:02;1.17;;;1.08;;
17943;SDS011;9097;47.028;15.444;2023-09-07T12:15:06;2.70;;;1.20;;
17943;SDS011;9097;47.028;15.444;2023-09-07T12:18:08;2.20;;;1.48;;
17943;SDS011;9097;47.028;15.444;2023-09-07T12:21:12;2.40;;;1.45;;
17943;SDS011;9097;47.028;15.444;2023-09-07T12:24:15;1.63;;;1.15;;
17943;SDS011;9097;47.028;15.444;2023-09-07T12:27:17;1.95;;;1.67;;
17943;SDS011;9097;47.028;15.444;2023-09-07T12:30:20;1.60;;;1.50;;
17943;SDS011;9097;47.028;15.444;2023-09-07T12:33:24;2.05;;;1.20;;
17943;SDS011;9097;47.028;15.444;2023-09-07T12:36:30;3.28;;;1.23;;
17943;SDS011;9097;47.028;15.444;2023-09-07T12:39:33;1.52;;;1.27;;
17943;SDS011;9097;47.028;15.444;2023-09-07T12:42:35;2.50;;;1.63;;
17943;SDS011;9097;47.028;15.444;2023-09-07T12:45:38;2.33;;;1.30;;
17943;SDS011;9097;47.028;15.444;2023-09-07T12:48:40;3.50;;;1.75;;
17943;SDS011;9097;47.028;15.444;2023-09-07T12:51:46;2.67;;;1.45;;
17943;SDS011;9097;47.028;15.444;2023-09-07T12:54:48;1.65;;;1.30;;
17943;SDS011;9097;47.028;15.444;2023-09-07T12:57:51;2.67;;;1.50;;
17943;SDS011;9097;47.028;15.444;2023-09-07T13:00:53;1.67;;;1.30;;
17943;SDS011;9097;47.028;15.444;2023-09-07T13:03:56;2.25;;;1.40;;
17943;SDS011;9097;47.028;15.444;2023-09-07T13:07:00;1.08;;;0.95;;
17943;SDS011;9097;47.028;15.444;2023-09-07T13:10:02;3.08;;;1.90;;
17943;SDS011;9097;47.028;15.444;2023-09-07T13:13:05;2.83;;;1.67;;
17943;SDS011;9097;47.028;15.444;2023-09-07T13:16:07;2.45;;;1.45;;
17943;SDS011;9097;47.028;15.444;2023-09-07T13:19:10;2.83;;;1.15;;
17943;SDS011;9097;47.028;15.444;2023-09-07T13:22:14;2.10;;;1.52;;
17943;SDS011;9097;47.028;15.444;2023-09-07T13:25:16;2.80;;;1.55;;
17943;SDS011;9097;47.028;15.444;2023-09-07T13:28:19;1.75;;;1.48;;
17943;SDS011;9097;47.028;15.444;2023-09-07T13:31:21;2.95;;;1.48;;
17943;SDS011;9097;47.028;15.444;2023-09-07T13:34:24;3.03;;;1.52;;
17943;SDS011;9097;47.028;15.444;2023-09-07T13:37:27;1.27;;;0.95;;
17943;SDS011;9097;47.028;15.444;2023-09-07T13:40:30;1.88;;;1.33;;
17943;SDS011;9097;47.028;15.444;2023-09-07T13:43:32;1.98;;;1.38;;
17943;SDS011;9097;47.028;15.444;2023-09-07T13:46:35;1.90;;;1.30;;
17943;SDS011;9097;47.028;15.444;2023-09-07T13:49:37;2.65;;;1.30;;
17943;SDS011;9097;47.028;15.444;2023-09-07T13:52:41;2.50;;;1.30;;
17943;SDS011;9097;47.028;15.444;2023-09-07T13:55:44;2.38;;;1.25;;
17943;SDS011;9097;47.028;15.444;2023-09-07T13:58:46;1.27;;;1.17;;
17943;SDS011;9097;47.028;15.444;2023-09-07T14:01:49;2.55;;;1.80;;
17943;SDS011;9097;47.028;15.444;2023-09-07T14:04:52;1.95;;;1.17;;
17943;SDS011;9097;47.028;15.444;2023-09-07T14:07:56;2.58;;;1.40;;
17943;SDS011;9097;47.028;15.444;2023-09-07T14:10:58;1.42;;;1.23;;
17943;SDS011;9097;47.028;15.444;2023-09-07T14:14:00;1.92;;;1.13;;
17943;SDS011;9097;47.028;15.444;2023-09-07T14:17:03;2.90;;;1.38;;
17943;SDS011;9097;47.028;15.444;2023-09-07T14:20:06;1.50;;;1.02;;
17943;SDS011;9097;47.028;15.444;2023-09-07T14:23:11;1.23;;;1.05;;
17943;SDS011;9097;47.028;15.444;2023-09-07T14:26:13;2.50;;;1.30;;
17943;SDS011;9097;47.028;15.444;2023-09-07T14:29:16;2.03;;;1.52;;
17943;SDS011;9097;47.028;15.444;2023-09-07T14:32:18;2.17;;;1.40;;
17943;SDS011;9097;47.028;15.444;2023-09-07T14:35:21;2.28;;;1.30;;
17943;SDS011;9097;47.028;15.444;2023-09-07T14:38:24;2.15;;;1.30;;
17943;SDS011;9097;47.028;15.444;2023-09-07T14:41:28;2.22;;;1.52;;
17943;SDS011;9097;47.028;15.444;2023-09-07T14:44:31;2.50;;;1.42;;
17943;SDS011;9097;47.028;15.444;2023-09-07T14:47:34;2.30;;;1.30;;
17943;SDS011;9097;47.028;15.444;2023-09-07T14:50:36;3.50;;;2.13;;
17943;SDS011;9097;47.028;15.444;2023-09-07T14:53:40;1.90;;;1.58;;
17943;SDS011;9097;47.028;15.444;2023-09-07T14:56:44;2.50;;;1.63;;
17943;SDS011;9097;47.028;15.444;2023-09-07T14:59:46;1.13;;;1.02;;
17943;SDS011;9097;47.028;15.444;2023-09-07T15:02:49;1.58;;;1.33;;
17943;SDS011;9097;47.028;15.444;2023-09-07T15:05:51;1.67;;;1.00;;
17943;SDS011;9097;47.028;15.444;2023-09-07T15:08:55;4.32;;;1.45;;
17943;SDS011;9097;47.028;15.444;2023-09-07T15:11:58;2.60;;;1.65;;
17943;SDS011;9097;47.028;15.444;2023-09-07T15:15:00;3.38;;;1.42;;
17943;SDS011;9097;47.028;15.444;2023-09-07T15:18:03;1.58;;;1.20;;
17943;SDS011;9097;47.028;15.444;2023-09-07T15:21:06;2.08;;;1.20;;
17943;SDS011;9097;47.028;15.444;2023-09-07T15:24:10;1.70;;;1.30;;
17943;SDS011;9097;47.028;15.444;2023-09-07T15:27:12;1.83;;;1.08;;
17943;SDS011;9097;47.028;15.444;2023-09-07T15:30:15;1.65;;;1.17;;
17943;SDS011;9097;47.028;15.444;2023-09-07T15:33:18;2.38;;;1.20;;
17943;SDS011;9097;47.028;15.444;2023-09-07T15:36:20;2.20;;;1.40;;
17943;SDS011;9097;47.028;15.444;2023-09-07T15:39:24;1.73;;;1.23;;
17943;SDS011;9097;47.028;15.444;2023-09-07T15:42:27;1.90;;;1.48;;
17943;SDS011;9097;47.028;15.444;2023-09-07T15:45:29;3.50;;;1.52;;
17943;SDS011;9097;47.028;15.444;2023-09-07T15:48:32;3.17;;;2.03;;
17943;SDS011;9097;47.028;15.444;2023-09-07T15:51:34;2.42;;;1.30;;
17943;SDS011;9097;47.028;15.444;2023-09-07T15:54:38;1.65;;;1.48;;
17943;SDS011;9097;47.028;15.444;2023-09-07T15:57:41;1.13;;;1.00;;
17943;SDS011;9097;47.028;15.444;2023-09-07T16:00:47;2.90;;;2.03;;
17943;SDS011;9097;47.028;15.444;2023-09-07T16:03:50;2.03;;;1.20;;
17943;SDS011;9097;47.028;15.444;2023-09-07T16:06:52;2.50;;;1.25;;
17943;SDS011;9097;47.028;15.444;2023-09-07T16:09:56;1.83;;;1.23;;
17943;SDS011;9097;47.028;15.444;2023-09-07T16:12:59;1.20;;;1.00;;
17943;SDS011;9097;47.028;15.444;2023-09-07T16:16:02;1.77;;;1.23;;
17943;SDS011;9097;47.028;15.444;2023-09-07T16:19:04;2.28;;;1.42;;
17943;SDS011;9097;47.028;15.444;2023-09-07T16:22:08;2.13;;;1.20;;
17943;SDS011;9097;47.028;15.444;2023-09-07T16:25:12;2.67;;;1.65;;
17943;SDS011;9097;47.028;15.444;2023-09-07T16:28:15;1.85;;;1.23;;
17943;SDS011;9097;47.028;15.444;2023-09-07T16:31:18;3.13;;;1.60;;
17943;SDS011;9097;47.028;15.444;2023-09-07T16:34:20;1.38;;;1.27;;
17943;SDS011;9097;47.028;15.444;2023-09-07T16:37:23;1.90;;;1.10;;
17943;SDS011;9097;47.028;15.444;2023-09-07T16:40:28;2.70;;;1.50;;
17943;SDS011;9097;47.028;15.444;2023-09-07T16:43:30;3.15;;;1.83;;
17943;SDS011;9097;47.028;15.444;2023-09-07T16:46:33;2.78;;;1.55;;
17943;SDS011;9097;47.028;15.444;2023-09-07T16:49:35;4.25;;;1.98;;
17943;SDS011;9097;47.028;15.444;2023-09-07T16:52:38;3.03;;;1.55;;
17943;SDS011;9097;47.028;15.444;2023-09-07T16:55:42;2.42;;;1.67;;
17943;SDS011;9097;47.028;15.444;2023-09-07T16:58:44;1.58;;;1.30;;
17943;SDS011;9097;47.028;15.444;2023-09-07T17:01:46;3.40;;;1.40;;
17943;SDS011;9097;47.028;15.444;2023-09-07T17:04:50;5.30;;;1.70;;
17943;SDS011;9097;47.028;15.444;2023-09-07T17:07:53;1.42;;;1.30;;
17943;SDS011;9097;47.028;15.444;2023-09-07T17:10:57;1.65;;;1.00;;
17943;SDS011;9097;47.028;15.444;2023-09-07T17:14:00;2.38;;;1.00;;
17943;SDS011;9097;47.028;15.444;2023-09-07T17:17:03;1.55;;;1.08;;
17943;SDS011;9097;47.028;15.444;2023-09-07T17:20:07;2.17;;;1.65;;
17943;SDS011;9097;47.028;15.444;2023-09-07T17:23:09;1.38;;;1.25;;
17943;SDS011;9097;47.028;15.444;2023-09-07T17:26:14;1.05;;;0.93;;
17943;SDS011;9097;47.028;15.444;2023-09-07T17:29:17;3.00;;;1.13;;
17943;SDS011;9097;47.028;15.444;2023-09-07T17:32:20;2.72;;;1.17;;
17943;SDS011;9097;47.028;15.444;2023-09-07T17:35:23;2.05;;;1.45;;
17943;SDS011;9097;47.028;15.444;2023-09-07T17:38:26;1.75;;;1.30;;
17943;SDS011;9097;47.028;15.444;2023-09-07T17:41:30;1.42;;;1.20;;
17943;SDS011;9097;47.028;15.444;2023-09-07T17:44:35;1.73;;;1.23;;
17943;SDS011;9097;47.028;15.444;2023-09-07T17:47:37;3.63;;;1.38;;
17943;SDS011;9097;47.028;15.444;2023-09-07T17:50:40;2.22;;;1.60;;
17943;SDS011;9097;47.028;15.444;2023-09-07T17:53:43;1.75;;;0.93;;
17943;SDS011;9097;47.028;15.444;2023-09-07T17:56:47;2.38;;;1.58;;
17943;SDS011;9097;47.028;15.444;2023-09-07T17:59:50;3.33;;;2.20;;
17943;SDS011;9097;47.028;15.444;2023-09-07T18:02:57;4.88;;;2.33;;
17943;SDS011;9097;47.028;15.444;2023-09-07T18:06:00;3.08;;;1.38;;
17943;SDS011;9097;47.028;15.444;2023-09-07T18:09:03;2.70;;;1.88;;
17943;SDS011;9097;47.028;15.444;2023-09-07T18:12:14;3.08;;;1.67;;
17943;SDS011;9097;47.028;15.444;2023-09-07T18:15:20;3.30;;;2.30;;
17943;SDS011;9097;47.028;15.444;2023-09-07T18:18:26;3.55;;;1.48;;
17943;SDS011;9097;47.028;15.444;2023-09-07T18:21:29;2.70;;;1.58;;
17943;SDS011;9097;47.028;15.444;2023-09-07T18:24:31;2.13;;;1.30;;